Time;durP1;ratioP1;P1;durP2;ratioP2;P2;SDS_P1;SDS_P2;PMS_P1;PMS_P2;Temp;Humidity;BMP_temperature;BMP_pressure;BME280_temperature;BME280_humidity;BME280_pressure;Samples;Min_cycle;Max_cycle;Signal;HPM_P1;HPM_P2
2022/12/09 00:00:13;;;;;;;27.00;24.42;;;;;;;-2.29;100.00;100730.41;5127800;28;20070;-63
2022/12/09 00:02:43;;;;;;;27.60;25.23;;;;;;;-2.43;100.00;100713.50;5125785;29;20028;-65
2022/12/09 00:05:14;;;;;;;21.88;20.30;;;;;;;-2.43;100.00;100738.09;5127182;28;20090;-65
2022/12/09 00:07:44;;;;;;;22.88;20.95;;;;;;;-2.51;100.00;100729.41;5127523;29;20082;-63
2022/12/09 00:10:15;;;;;;;24.38;22.65;;;;;;;-2.55;100.00;100728.91;5126198;29;20062;-64
2022/12/09 00:12:45;;;;;;;23.52;21.60;;;;;;;-2.58;100.00;100723.16;5126759;28;20074;-63
2022/12/09 00:15:16;;;;;;;26.80;24.17;;;;;;;-2.55;100.00;100725.44;5127258;28;20368;-63
2022/12/09 00:17:46;;;;;;;23.85;21.95;;;;;;;-2.60;100.00;100719.88;5125560;29;20106;-64
2022/12/09 00:20:16;;;;;;;25.02;22.80;;;;;;;-2.60;100.00;100718.06;5127121;28;20026;-64
2022/12/09 00:22:47;;;;;;;25.30;23.25;;;;;;;-2.58;100.00;100720.50;5125142;29;20047;-64
2022/12/09 00:25:17;;;;;;;30.23;27.08;;;;;;;-2.60;100.00;100725.16;5127325;28;20458;-64
2022/12/09 00:27:47;;;;;;;26.00;23.75;;;;;;;-2.61;100.00;100723.53;5126862;28;20034;-64
2022/12/09 00:30:18;;;;;;;26.75;24.45;;;;;;;-2.74;100.00;100706.41;5125142;29;20109;-63
2022/12/09 00:32:48;;;;;;;24.92;22.52;;;;;;;-2.66;100.00;100724.03;5126332;29;20031;-63
2022/12/09 00:35:19;;;;;;;26.05;23.65;;;;;;;-2.70;100.00;100722.72;5126207;28;20031;-63
2022/12/09 00:37:49;;;;;;;25.83;23.27;;;;;;;-2.72;100.00;100725.53;5125979;28;20031;-63
2022/12/09 00:40:20;;;;;;;28.30;25.60;;;;;;;-2.80;100.00;100722.13;5126152;29;20067;-64
2022/12/09 00:42:50;;;;;;;26.38;24.38;;;;;;;-2.78;100.00;100726.22;5125497;28;20027;-63
2022/12/09 00:45:21;;;;;;;26.50;23.67;;;;;;;-2.79;100.00;100723.75;5126371;29;20051;-63
2022/12/09 00:47:51;;;;;;;27.58;25.23;;;;;;;-2.81;100.00;100729.22;5126269;28;20023;-64
2022/12/09 00:50:21;;;;;;;27.77;25.33;;;;;;;-2.81;100.00;100737.16;5125419;28;20031;-63
2022/12/09 00:52:52;;;;;;;26.25;23.77;;;;;;;-2.92;100.00;100723.50;5125346;28;20023;-63
2022/12/09 00:55:22;;;;;;;27.80;25.50;;;;;;;-2.91;100.00;100733.09;5125959;28;20476;-63
2022/12/09 00:57:52;;;;;;;28.00;25.60;;;;;;;-2.93;100.00;100725.31;5125739;29;20399;-64
2022/12/09 01:00:23;;;;;;;30.48;27.45;;;;;;;-2.90;100.00;100730.28;5125839;29;20019;-63
2022/12/09 01:02:53;;;;;;;28.88;26.58;;;;;;;-2.90;100.00;100727.63;5125290;28;20067;-63
2022/12/09 01:05:24;;;;;;;30.48;28.02;;;;;;;-2.92;100.00;100723.50;5125856;28;20023;-63
2022/12/09 01:07:54;;;;;;;32.35;25.73;;;;;;;-3.19;100.00;100690.44;5125534;28;20102;-63
2022/12/09 01:10:24;;;;;;;29.70;27.25;;;;;;;-2.97;100.00;100731.94;5125976;28;20039;-63
2022/12/09 01:12:55;;;;;;;28.08;25.75;;;;;;;-3.04;100.00;100716.94;5125342;28;20467;-63
2022/12/09 01:15:25;;;;;;;29.77;27.00;;;;;;;-3.03;100.00;100718.59;5125794;28;20038;-64
2022/12/09 01:17:56;;;;;;;31.02;28.40;;;;;;;-2.99;100.00;100730.47;5125831;28;20019;-63
2022/12/09 01:20:26;;;;;;;29.40;26.67;;;;;;;-2.99;100.00;100711.97;5125600;28;20035;-63
2022/12/09 01:22:56;;;;;;;30.48;27.58;;;;;;;-2.88;100.00;100724.78;5123506;28;20466;-63
2022/12/09 01:25:27;;;;;;;27.45;24.95;;;;;;;-2.94;100.00;100714.94;5125647;28;20035;-63
2022/12/09 01:27:57;;;;;;;28.35;25.88;;;;;;;-2.90;100.00;100727.63;5125587;28;20029;-63
2022/12/09 01:30:27;;;;;;;28.00;25.60;;;;;;;-2.88;100.00;100724.78;5125810;29;20107;-63
2022/12/09 01:32:58;;;;;;;29.45;26.73;;;;;;;-2.81;100.00;100721.28;5124754;28;20490;-64
2022/12/09 01:35:28;;;;;;;28.70;26.33;;;;;;;-2.80;100.00;100722.94;5124042;29;20031;-63
2022/12/09 01:37:59;;;;;;;34.83;31.10;;;;;;;-2.80;100.00;100717.66;5140261;23;20047;-63
2022/12/09 01:40:29;;;;;;;29.73;27.42;;;;;;;-2.78;100.00;100730.69;5127625;29;20043;-64
2022/12/09 01:45:40;;;;;;;;;;;;;;;-2.81;100.00;100733.69;5578237;23;20169;-91
2022/12/09 01:48:13;;;;;;;33.17;29.65;;;;;;;-2.84;100.00;100726.91;5136506;28;19920;-91
2022/12/09 01:51:06;;;;;;;31.08;28.38;;;;;;;-3.20;100.00;100713.38;5135962;29;20027;-91
2022/12/09 01:53:40;;;;;;;31.65;28.83;;;;;;;-3.01;100.00;100704.22;5135847;28;20350;-92
2022/12/09 01:56:19;;;;;;;30.95;27.90;;;;;;;-2.92;100.00;100734.91;5136842;28;20034;-90
2022/12/09 01:58:52;;;;;;;33.25;30.30;;;;;;;-3.18;100.00;100686.81;5135423;28;20035;-90
2022/12/09 02:01:23;;;;;;;29.50;26.98;;;;;;;-3.24;100.00;100683.03;5135830;28;20669;-89
2022/12/09 02:03:53;;;;;;;33.50;30.67;;;;;;;-3.08;100.00;100737.59;5135514;28;20023;-89
2022/12/09 02:06:24;;;;;;;34.00;30.88;;;;;;;-3.42;100.00;100675.31;5135547;28;20027;-89
2022/12/09 02:08:55;;;;;;;32.08;29.33;;;;;;;-3.79;100.00;100627.59;5137120;28;20031;-90
2022/12/09 02:12:04;;;;;;;28.90;26.30;;;;;;;-2.99;100.00;100727.81;5145296;28;20095;-90
2022/12/09 02:14:38;;;;;;;33.97;31.05;;;;;;;-2.93;100.00;100749.09;5148156;29;20011;-90
2022/12/09 02:17:22;;;;;;;32.00;28.90;;;;;;;-2.68;100.00;100739.25;5151473;28;20011;-91
2022/12/09 02:20:03;;;;;;;36.25;32.67;;;;;;;-4.22;100.00;100497.81;5151223;28;20021;-89
2022/12/09 02:22:47;;;;;;;31.00;28.58;;;;;;;-2.74;100.00;100738.09;5151010;28;20099;-91
2022/12/09 02:25:36;;;;;;;36.25;32.92;;;;;;;-2.79;100.00;100735.16;5134853;28;20019;-89
2022/12/09 02:28:29;;;;;;;34.28;30.73;;;;;;;-3.34;100.00;100676.28;5128057;28;20090;-90
2022/12/09 02:31:22;;;;;;;34.60;31.63;;;;;;;-3.66;100.00;100619.97;5120207;29;20027;-90
2022/12/09 02:34:13;;;;;;;37.55;34.45;;;;;;;-3.02;100.00;100726.34;5136587;29;20031;-91
2022/12/09 02:37:11;;;;;;;37.00;31.48;;;;;;;-2.98;100.00;100722.38;5119646;29;20027;-90
2022/12/09 02:39:58;;;;;;;33.60;30.50;;;;;;;-2.75;100.00;100720.59;5119114;29;20030;-91
2022/12/09 02:42:33;;;;;;;37.80;33.33;;;;;;;-2.64;100.00;100698.25;5135860;29;20110;-90
2022/12/09 02:45:06;;;;;;;36.42;33.42;;;;;;;-2.20;100.00;100724.06;5136165;29;20027;-91
2022/12/09 02:47:41;;;;;;;42.45;38.65;;;;;;;-2.09;100.00;100707.78;5119576;29;20070;-90
2022/12/09 02:50:15;;;;;;;38.92;35.45;;;;;;;-1.90;100.00;100725.00;5118976;29;20024;-91
2022/12/09 02:52:46;;;;;;;48.75;44.40;;;;;;;-1.81;100.00;100740.63;5119624;29;20026;-91
2022/12/09 02:55:19;;;;;;;44.97;40.95;;;;;;;-1.74;100.00;100744.22;5137057;29;20083;-91
2022/12/09 02:57:55;;;;;;;46.97;42.25;;;;;;;-2.10;100.00;100656.72;5136081;28;20038;-89
2022/12/09 03:00:26;;;;;;;47.08;42.17;;;;;;;-3.75;100.00;100394.06;5118860;29;20027;-90
2022/12/09 03:03:00;;;;;;;47.30;42.17;;;;;;;-3.88;100.00;100346.38;5118524;29;20034;-89
2022/12/09 03:05:59;;;;;;;47.67;43.40;;;;;;;-1.50;100.00;100718.53;5118283;29;20031;-90
2022/12/09 03:08:40;;;;;;;49.58;43.67;;;;;;;-1.45;100.00;100708.22;5134781;29;20034;-90
2022/12/09 03:11:14;;;;;;;55.15;49.00;;;;;;;-1.82;100.00;100642.88;5135723;29;20081;-90
2022/12/09 03:13:45;;;;;;;48.45;43.47;;;;;;;-1.38;100.00;100712.56;5121456;29;20023;-91
2022/12/09 03:16:31;;;;;;;45.70;40.00;;;;;;;-1.75;100.00;100660.53;5122879;29;20031;-90
2022/12/09 03:19:20;;;;;;;46.55;41.75;;;;;;;-1.54;100.00;100678.34;5122820;29;20043;-90
2022/12/09 03:21:56;;;;;;;69.97;51.15;;;;;;;-1.28;100.00;100707.03;5122555;29;20042;-91
2022/12/09 03:24:32;;;;;;;53.38;47.35;;;;;;;-1.31;100.00;100703.91;5139638;29;20019;-91
2022/12/09 03:27:07;;;;;;;57.38;48.30;;;;;;;-1.60;100.00;100643.81;5123015;28;20062;-91
2022/12/09 03:29:45;;;;;;;80.22;49.95;;;;;;;-1.93;100.00;100590.41;5140936;29;20090;-91
2022/12/09 03:32:18;;;;;;;51.88;46.58;;;;;;;-1.34;100.00;100705.09;5122653;29;20122;-91
2022/12/09 03:34:51;;;;;;;50.63;45.38;;;;;;;-2.39;100.00;100497.97;5131522;29;20054;-89
2022/12/09 03:37:22;;;;;;;51.40;46.42;;;;;;;-1.94;100.00;100580.81;5138649;28;20034;-92
2022/12/09 03:39:56;;;;;;;57.15;50.33;;;;;;;-1.48;100.00;100643.19;5139852;28;20031;-91
2022/12/09 03:42:41;;;;;;;61.97;46.58;;;;;;;-2.84;100.00;100448.66;5140015;28;20027;-92
2022/12/09 03:45:15;;;;;;;66.07;49.40;;;;;;;-1.83;100.00;100583.03;5139739;28;20469;-93
2022/12/09 03:47:46;;;;;;;70.32;44.05;;;;;;;-1.07;100.00;100695.69;5139718;28;20489;-92
2022/12/09 03:50:17;;;;;;;66.32;47.00;;;;;;;-1.07;100.00;100675.31;5140079;29;20023;-92
2022/12/09 03:53:03;;;;;;;64.07;47.08;;;;;;;-2.23;100.00;100486.38;5140660;29;20046;-94
2022/12/09 03:55:43;;;;;;;61.42;47.85;;;;;;;-0.85;100.00;100718.59;5140345;29;20178;-92
2022/12/09 03:58:16;;;;;;;41.20;35.45;;;;;;;-1.83;100.00;100564.50;5140556;28;20034;-92
2022/12/09 04:00:47;;;;;;;95.47;46.85;;;;;;;-1.95;100.00;100534.19;5139864;28;20646;-92
2022/12/09 04:03:18;;;;;;;57.30;46.85;;;;;;;-1.29;100.00;100623.25;5140859;28;20565;-92
2022/12/09 04:05:49;;;;;;;55.97;46.13;;;;;;;-1.68;100.00;100591.78;5139355;28;20046;-91
2022/12/09 04:08:19;;;;;;;65.95;46.05;;;;;;;-0.91;100.00;100708.75;5140984;28;20035;-94
2022/12/09 04:10:50;;;;;;;66.13;43.05;;;;;;;-2.07;100.00;100487.03;5141689;28;20025;-91
2022/12/09 04:13:20;;;;;;;68.38;45.83;;;;;;;-0.76;100.00;100688.31;5140201;29;20513;-92
2022/12/09 04:15:50;;;;;;;57.28;42.47;;;;;;;-2.21;100.00;100471.16;5140635;28;20031;-92
2022/12/09 04:18:21;;;;;;;57.42;43.47;;;;;;;-1.62;100.00;100590.22;5138915;28;20074;-92
2022/12/09 04:20:51;;;;;;;59.33;45.58;;;;;;;-2.10;100.00;100470.72;5140613;29;20027;-94
2022/12/09 04:23:22;;;;;;;66.25;45.05;;;;;;;-1.20;100.00;100643.34;5140350;28;20454;-93
2022/12/09 04:25:52;;;;;;;63.88;43.05;;;;;;;-2.11;100.00;100514.84;5139745;28;20023;-92
2022/12/09 04:28:23;;;;;;;43.55;27.98;;;;;;;-1.90;100.00;100506.19;5138839;28;20397;-93
2022/12/09 04:30:53;;;;;;;47.95;36.00;;;;;;;-2.37;100.00;100427.22;5138530;29;20050;-93
2022/12/09 04:33:25;;;;;;;49.15;34.58;;;;;;;-2.85;100.00;100358.00;5139372;29;20034;-93
2022/12/09 04:36:03;;;;;;;46.53;35.88;;;;;;;-0.73;100.00;100719.75;5138621;28;20050;-93
2022/12/09 04:38:34;;;;;;;42.53;32.58;;;;;;;-1.06;100.00;100625.78;5138283;28;20517;-94
2022/12/09 04:41:04;;;;;;;48.30;32.53;;;;;;;-0.69;100.00;100683.09;5125058;29;20050;-92
2022/12/09 04:43:35;;;;;;;40.25;31.88;;;;;;;-0.63;100.00;100718.66;5138157;29;20027;-94
2022/12/09 04:46:09;;;;;;;50.45;32.05;;;;;;;-1.07;100.00;100624.13;5139680;29;20034;-93
2022/12/09 04:48:40;;;;;;;41.58;35.30;;;;;;;-0.99;100.00;100623.22;5139254;28;20448;-93
2022/12/09 04:51:13;;;;;;;49.55;35.92;;;;;;;-1.36;100.00;100556.94;5122836;29;20023;-94
2022/12/09 04:53:43;;;;;;;57.47;31.33;;;;;;;-1.03;100.00;100612.16;5122360;29;20034;-94
2022/12/09 04:56:19;;;;;;;40.05;31.48;;;;;;;-1.84;100.00;100507.28;5122537;29;20477;-93
2022/12/09 04:58:50;;;;;;;46.45;35.15;;;;;;;-0.59;100.00;100720.75;5122369;29;20023;-93
2022/12/09 05:01:22;;;;;;;44.42;33.17;;;;;;;-1.47;100.00;100554.78;5122258;29;20034;-93
2022/12/09 05:03:53;;;;;;;40.30;30.70;;;;;;;-2.23;100.00;100410.50;5122357;29;20366;-93
2022/12/09 05:06:24;;;;;;;52.35;30.75;;;;;;;-2.78;100.00;100336.97;5138344;29;20465;-93
2022/12/09 05:08:55;;;;;;;43.38;35.08;;;;;;;-1.39;100.00;100559.97;5138481;29;20047;-93
2022/12/09 05:11:25;;;;;;;47.10;34.95;;;;;;;-1.25;100.00;100576.03;5139904;29;20030;-92
2022/12/09 05:13:56;;;;;;;41.90;33.00;;;;;;;-0.48;100.00;100717.59;5140066;29;20033;-92
2022/12/09 05:16:26;;;;;;;36.33;32.50;;;;;;;-1.21;100.00;100570.19;5140643;29;20031;-92
2022/12/09 05:18:58;;;;;;;48.85;33.78;;;;;;;-0.61;100.00;100674.22;5123137;29;20028;-93
2022/12/09 05:21:29;;;;;;;38.30;30.67;;;;;;;-0.46;100.00;100683.75;5128709;28;20043;-91
2022/12/09 05:24:01;;;;;;;41.22;33.10;;;;;;;-1.24;100.00;100572.38;5136636;28;20030;-92
2022/12/09 05:26:32;;;;;;;48.63;34.17;;;;;;;-1.17;100.00;100562.69;5136768;28;20019;-93
2022/12/09 05:29:04;;;;;;;42.50;33.88;;;;;;;-2.67;100.00;100315.38;5152447;28;20034;-93
2022/12/09 05:31:35;;;;;;;56.35;36.92;;;;;;;-1.34;100.00;100572.66;5136028;28;20011;-96
2022/12/09 05:34:06;;;;;;;43.55;32.58;;;;;;;-0.42;100.00;100695.63;5131164;28;20038;-94
2022/12/09 05:36:36;;;;;;;47.08;35.53;;;;;;;-1.64;100.00;100508.34;5123265;29;20019;-95
2022/12/09 05:39:07;;;;;;;50.83;29.52;;;;;;;-0.90;100.00;100600.88;5139265;29;20034;-94
2022/12/09 05:41:37;;;;;;;49.05;35.45;;;;;;;-1.18;100.00;100545.97;5123026;29;20126;-95
2022/12/09 05:44:10;;;;;;;48.05;33.03;;;;;;;-1.67;100.00;100463.69;5140705;29;20066;-93
2022/12/09 05:46:41;;;;;;;43.08;34.95;;;;;;;-1.69;100.00;100452.47;5123738;29;20065;-93
2022/12/09 05:49:11;;;;;;;49.22;34.28;;;;;;;-2.40;100.00;100348.25;5123310;29;20473;-94
2022/12/09 05:51:42;;;;;;;52.53;35.58;;;;;;;-0.33;100.00;100693.69;5123682;29;20019;-94
2022/12/09 05:54:14;;;;;;;47.17;33.65;;;;;;;-0.32;100.00;100674.09;5123608;29;20090;-93
2022/12/09 05:56:45;;;;;;;40.55;31.90;;;;;;;-1.01;100.00;100570.38;5124000;29;20039;-95
2022/12/09 05:59:15;;;;;;;43.30;35.85;;;;;;;-1.62;100.00;100469.25;5123398;29;20043;-94
2022/12/09 06:01:45;;;;;;;47.40;35.00;;;;;;;-2.41;100.00;100341.31;5123454;29;20185;-94
2022/12/09 06:04:16;;;;;;;46.10;35.38;;;;;;;-1.01;100.00;100559.78;5139999;29;20039;-94
2022/12/09 06:06:47;;;;;;;43.42;29.88;;;;;;;-0.64;100.00;100626.84;5122819;29;20055;-94
2022/12/09 06:09:17;;;;;;;43.83;36.13;;;;;;;-0.26;100.00;100675.97;5139371;29;20567;-94
2022/12/09 06:11:50;;;;;;;46.55;34.17;;;;;;;-0.81;100.00;100597.91;5124979;29;20055;-93
2022/12/09 06:14:23;;;;;;;60.53;38.40;;;;;;;-1.61;100.00;100448.91;5124238;29;20027;-94
2022/12/09 06:17:02;;;;;;;49.72;36.85;;;;;;;-0.23;100.00;100664.97;5123824;28;20024;-93
2022/12/09 06:19:33;;;;;;;45.83;35.42;;;;;;;-0.38;100.00;100640.38;5124092;29;20031;-94
2022/12/09 06:22:03;;;;;;;46.25;35.20;;;;;;;-0.25;100.00;100658.22;5122867;29;20046;-94
2022/12/09 06:24:34;;;;;;;40.92;33.30;;;;;;;-0.92;100.00;100544.59;5131337;29;20094;-93
2022/12/09 06:27:08;;;;;;;49.65;38.47;;;;;;;-2.27;100.00;100339.66;5139685;28;20038;-93
2022/12/09 06:29:38;;;;;;;49.45;35.90;;;;;;;-0.19;100.00;100658.28;5139159;29;20031;-94
2022/12/09 06:32:09;;;;;;;42.92;35.17;;;;;;;-1.37;100.00;100497.03;5139681;28;20049;-92
2022/12/09 06:34:40;;;;;;;38.42;34.33;;;;;;;-1.44;100.00;100492.66;5140641;29;20023;-90
2022/12/09 06:37:10;;;;;;;50.55;37.75;;;;;;;-0.94;100.00;100551.91;5148644;28;20055;-93
2022/12/09 06:39:41;;;;;;;53.30;37.47;;;;;;;-0.15;100.00;100664.03;5143618;29;20027;-93
2022/12/09 06:42:26;;;;;;;45.30;31.38;;;;;;;-1.57;100.00;100427.16;5124993;29;20035;-94
2022/12/09 06:44:57;;;;;;;48.80;39.65;;;;;;;-0.17;100.00;100676.69;5149607;29;20008;-93
2022/12/09 06:47:27;;;;;;;40.75;34.95;;;;;;;-2.10;100.00;100391.34;5133830;28;20031;-94
2022/12/09 06:50:00;;;;;;;47.65;37.28;;;;;;;-0.87;100.00;100558.94;5149814;28;20027;-93
2022/12/09 06:52:34;;;;;;;53.75;39.13;;;;;;;-2.21;100.00;100368.00;5132293;28;20046;-92
2022/12/09 06:55:07;;;;;;;46.35;32.15;;;;;;;-0.13;100.00;100673.47;5132407;29;20035;-90
2022/12/09 06:57:45;;;;;;;39.05;34.72;;;;;;;-1.58;100.00;100451.19;5151419;28;20078;-92
2022/12/09 07:00:16;;;;;;;50.25;43.00;;;;;;;-1.33;100.00;100472.84;5134122;29;20035;-92
2022/12/09 07:02:46;;;;;;;41.20;32.80;;;;;;;-1.87;100.00;100397.31;5124878;29;20027;-90
2022/12/09 07:05:17;;;;;;;43.53;34.10;;;;;;;-0.87;100.00;100556.28;5122848;29;20499;-94
2022/12/09 07:07:51;;;;;;;43.53;37.17;;;;;;;-1.93;100.00;100421.88;5141288;29;20050;-92
2022/12/09 07:10:24;;;;;;;41.08;30.55;;;;;;;-2.14;100.00;100345.94;5122867;29;20023;-91
2022/12/09 07:12:57;;;;;;;43.80;31.33;;;;;;;-0.77;100.00;100603.66;5141578;28;20027;-92
2022/12/09 07:15:27;;;;;;;38.38;31.92;;;;;;;-1.80;100.00;100429.97;5122448;29;20575;-90
2022/12/09 07:17:58;;;;;;;35.72;30.38;;;;;;;-0.43;100.00;100634.81;5138549;28;20091;-90
2022/12/09 07:20:28;;;;;;;35.38;29.35;;;;;;;-0.45;100.00;100666.81;5126094;29;20023;-91
2022/12/09 07:22:58;;;;;;;39.03;31.55;;;;;;;-0.40;100.00;100640.56;5139231;29;20044;-89
2022/12/09 07:25:29;;;;;;;41.35;35.05;;;;;;;-0.13;100.00;100718.56;5139332;29;20086;-89
2022/12/09 07:27:59;;;;;;;33.88;28.70;;;;;;;-1.31;100.00;100497.31;5122604;29;20031;-90
2022/12/09 07:30:30;;;;;;;34.08;29.42;;;;;;;-1.54;100.00;100474.44;5140052;29;20202;-91
2022/12/09 07:33:00;;;;;;;38.92;32.75;;;;;;;-0.85;100.00;100588.69;5139105;29;20051;-91
2022/12/09 07:35:30;;;;;;;39.33;31.73;;;;;;;-0.42;100.00;100662.97;5137699;29;20040;-91
2022/12/09 07:38:01;;;;;;;36.97;31.45;;;;;;;-0.07;100.00;100688.63;5151816;23;20039;-70
2022/12/09 07:40:31;;;;;;;56.65;33.92;;;;;;;-0.08;100.00;100691.47;5143453;28;20035;-67
2022/12/09 07:43:02;;;;;;;37.53;33.42;;;;;;;-0.09;100.00;100690.66;5125529;28;20499;-68
2022/12/09 07:45:36;;;;;;;46.67;30.25;;;;;;;-0.08;100.00;100694.94;5143190;28;20154;-66
2022/12/09 07:48:08;;;;;;;38.83;30.02;;;;;;;-0.06;100.00;100695.56;5142924;28;20450;-65
2022/12/09 07:50:38;;;;;;;67.35;34.15;;;;;;;-0.06;100.00;100684.13;5143152;28;20109;-66
2022/12/09 07:53:08;;;;;;;42.55;31.90;;;;;;;-0.07;100.00;100690.47;5142343;28;20026;-66
2022/12/09 07:55:39;;;;;;;39.05;30.55;;;;;;;-0.07;100.00;100687.81;5142804;28;20498;-65
2022/12/09 07:58:09;;;;;;;38.78;33.80;;;;;;;-0.10;100.00;100694.31;5142267;28;20027;-65
2022/12/09 08:00:39;;;;;;;40.67;29.83;;;;;;;-0.12;100.00;100692.84;5145984;28;20022;-68
2022/12/09 08:03:11;;;;;;;42.00;34.15;;;;;;;-0.16;100.00;100681.78;5146189;28;20088;-68
2022/12/09 08:05:46;;;;;;;37.92;32.97;;;;;;;-0.17;100.00;100684.63;5146719;28;20027;-67
2022/12/09 08:08:16;;;;;;;35.88;32.10;;;;;;;-0.21;100.00;100688.69;5146715;28;20027;-69
2022/12/09 08:10:48;;;;;;;40.35;30.48;;;;;;;-0.26;100.00;100688.41;5146549;28;20403;-66
2022/12/09 08:13:19;;;;;;;36.80;32.90;;;;;;;-0.38;100.00;100665.06;5128505;28;20023;-65
2022/12/09 08:15:50;;;;;;;42.55;34.00;;;;;;;-0.24;100.00;100689.88;5146631;28;20372;-66
2022/12/09 08:18:20;;;;;;;38.40;34.53;;;;;;;-0.21;100.00;100683.38;5147718;28;20030;-65
2022/12/09 08:20:50;;;;;;;37.22;32.85;;;;;;;-0.15;100.00;100696.72;5146347;28;20560;-66
2022/12/09 08:23:21;;;;;;;41.85;32.35;;;;;;;-0.16;100.00;100684.44;5126184;28;20023;-67
2022/12/09 08:25:53;;;;;;;39.53;33.28;;;;;;;-0.14;100.00;100693.03;5146974;28;20018;-72
2022/12/09 08:28:25;;;;;;;40.03;31.45;;;;;;;-0.08;100.00;100694.13;5146394;28;20031;-64
2022/12/09 08:30:56;;;;;;;41.53;31.20;;;;;;;-0.15;100.00;100670.16;5142969;28;20023;-67
2022/12/09 08:33:26;;;;;;;49.42;31.25;;;;;;;-0.03;100.00;100689.88;5144533;28;20030;-66
2022/12/09 08:35:56;;;;;;;47.75;32.72;;;;;;;-0.01;100.00;100690.53;5145364;28;20050;-66
2022/12/09 08:38:27;;;;;;;41.63;32.78;;;;;;;-0.02;100.00;100683.56;5145506;28;20491;-69
2022/12/09 08:40:58;;;;;;;34.05;29.90;;;;;;;0.04;100.00;100691.75;5145687;28;20419;-67
2022/12/09 08:43:28;;;;;;;37.47;32.28;;;;;;;0.09;100.00;100690.19;5144300;28;20027;-68
2022/12/09 08:45:59;;;;;;;46.60;34.58;;;;;;;0.17;100.00;100689.22;5146056;28;20467;-67
2022/12/09 08:48:29;;;;;;;45.55;32.83;;;;;;;0.23;100.00;100685.81;5128785;28;20551;-66
2022/12/09 08:50:59;;;;;;;48.97;34.92;;;;;;;0.29;100.00;100688.47;5146088;28;20026;-66
2022/12/09 08:53:30;;;;;;;40.90;35.90;;;;;;;0.35;100.00;100681.59;5145249;28;20542;-66
2022/12/09 08:56:09;;;;;;;42.50;32.35;;;;;;;0.46;100.00;100696.19;5145580;28;20035;-69
2022/12/09 08:58:40;;;;;;;42.95;34.83;;;;;;;0.52;100.00;100680.28;5145290;28;20031;-66
2022/12/09 09:01:19;;;;;;;45.15;36.50;;;;;;;0.54;100.00;100691.53;5145536;28;20026;-69
2022/12/09 09:03:50;;;;;;;45.38;33.45;;;;;;;0.43;100.00;100662.84;5145205;28;20027;-65
2022/12/09 09:06:20;;;;;;;44.95;33.33;;;;;;;0.66;100.00;100692.63;5138279;28;20118;-65
2022/12/09 09:08:50;;;;;;;50.83;37.05;;;;;;;0.75;100.00;100690.66;5125425;29;20019;-65
2022/12/09 09:11:22;;;;;;;44.83;33.30;;;;;;;0.70;100.00;100682.44;5124047;28;20054;-65
2022/12/09 09:13:53;;;;;;;46.03;38.05;;;;;;;0.83;100.00;100701.13;5110027;28;20037;-66
2022/12/09 09:16:25;;;;;;;47.95;34.83;;;;;;;0.82;100.00;100699.47;5122406;28;20035;-65
2022/12/09 09:18:55;;;;;;;47.10;33.78;;;;;;;0.83;100.00;100697.63;5124279;29;20439;-68
2022/12/09 09:21:26;;;;;;;38.05;32.92;;;;;;;0.89;100.00;100710.94;5124570;28;20031;-66
2022/12/09 09:23:57;;;;;;;42.15;32.60;;;;;;;0.87;100.00;100706.84;5125935;28;20129;-67
2022/12/09 09:26:27;;;;;;;35.28;31.10;;;;;;;0.79;100.00;100707.03;5140892;28;20030;-68
2022/12/09 09:28:57;;;;;;;36.47;32.70;;;;;;;0.70;100.00;100701.03;5143755;28;20110;-65
2022/12/09 09:31:28;;;;;;;43.30;34.03;;;;;;;0.64;100.00;100707.13;5144436;28;20027;-66
2022/12/09 09:33:58;;;;;;;38.55;32.08;;;;;;;0.49;100.00;100686.00;5142856;28;20111;-67
2022/12/09 09:36:29;;;;;;;42.17;32.72;;;;;;;0.56;100.00;100694.84;5144249;28;20049;-66
2022/12/09 09:38:59;;;;;;;38.67;33.60;;;;;;;0.48;100.00;100687.00;5143693;28;20030;-66
2022/12/09 09:41:50;;;;;;;35.90;32.05;;;;;;;0.62;100.00;100709.97;5143642;28;20390;-66
2022/12/09 09:44:21;;;;;;;31.45;27.50;;;;;;;0.66;100.00;100705.09;5125691;28;20034;-66
2022/12/09 09:46:53;;;;;;;38.55;31.02;;;;;;;0.76;100.00;100708.22;5126680;28;20033;-66
2022/12/09 09:49:42;;;;;;;38.03;32.35;;;;;;;0.88;100.00;100711.13;5143787;28;20026;-65
2022/12/09 09:52:19;;;;;;;34.40;30.27;;;;;;;0.95;100.00;100698.72;5143283;28;20019;-65
2022/12/09 09:54:51;;;;;;;32.20;28.50;;;;;;;1.02;100.00;100704.88;5125861;28;20034;-65
2022/12/09 09:57:30;;;;;;;36.92;33.05;;;;;;;1.03;100.00;100695.91;5143703;28;20026;-66
2022/12/09 10:00:25;;;;;;;35.50;31.35;;;;;;;0.93;100.00;100706.88;5143581;28;20030;-66
2022/12/09 10:02:59;;;;;;;43.60;33.63;;;;;;;0.78;100.00;100706.19;5142778;28;20030;-65
2022/12/09 10:05:30;;;;;;;33.47;28.45;;;;;;;0.73;100.00;100713.09;5143976;28;20550;-66
2022/12/09 10:08:06;;;;;;;38.03;34.17;;;;;;;0.71;100.00;100701.84;5143664;28;20030;-65
2022/12/09 10:11:23;;;;;;;38.80;30.23;;;;;;;0.72;100.00;100703.50;5143402;28;20031;-65
2022/12/09 10:14:00;;;;;;;40.20;31.83;;;;;;;0.82;100.00;100711.94;5100494;29;20532;-65
2022/12/09 10:16:49;;;;;;;42.80;34.88;;;;;;;0.92;100.00;100707.91;5137863;28;20041;-66
2022/12/09 10:19:45;;;;;;;37.88;32.33;;;;;;;1.00;100.00;100701.59;5143788;28;20030;-65
2022/12/09 10:22:22;;;;;;;39.67;34.25;;;;;;;1.03;100.00;100695.91;5141107;28;20027;-66
2022/12/09 10:24:56;;;;;;;45.05;39.03;;;;;;;1.05;100.00;100699.19;5143171;28;20046;-65
2022/12/09 10:27:43;;;;;;;45.20;35.88;;;;;;;0.99;100.00;100674.19;5143388;28;20038;-66
2022/12/09 10:30:16;;;;;;;43.15;36.22;;;;;;;1.32;100.00;100690.28;5142908;28;20026;-66
2022/12/09 10:32:47;;;;;;;39.15;32.13;;;;;;;1.37;100.00;100688.88;5142728;28;20023;-65
2022/12/09 10:35:21;;;;;;;35.38;31.60;;;;;;;1.56;100.00;100696.06;5125624;28;20031;-65
2022/12/09 10:37:53;;;;;;;38.38;34.33;;;;;;;1.73;100.00;100686.72;5143006;28;20037;-66
2022/12/09 10:40:46;;;;;;;38.67;33.33;;;;;;;1.83;100.00;100691.63;5143460;28;20070;-66
2022/12/09 10:43:37;;;;;;;34.35;30.80;;;;;;;1.82;100.00;100682.00;5142185;28;20038;-66
2022/12/09 10:46:17;;;;;;;45.85;32.35;;;;;;;1.84;100.00;100682.63;5143066;28;20101;-65
2022/12/09 10:48:47;;;;;;;38.72;33.70;;;;;;;1.93;100.00;100676.91;5142522;28;20085;-66
2022/12/09 10:51:24;;;;;;;40.55;33.08;;;;;;;1.88;100.00;100674.03;5143092;28;20022;-66
2022/12/09 10:54:10;;;;;;;40.97;35.15;;;;;;;1.78;100.00;100672.75;5142047;28;20471;-65
2022/12/09 10:57:05;;;;;;;43.28;34.15;;;;;;;1.75;100.00;100674.00;5142963;28;20110;-66
2022/12/09 10:59:37;;;;;;;46.83;30.02;;;;;;;1.83;100.00;100673.81;5141698;28;20033;-65
2022/12/09 11:02:07;;;;;;;46.63;33.97;;;;;;;1.96;100.00;100681.00;5142258;28;20034;-65
2022/12/09 11:04:40;;;;;;;39.70;31.77;;;;;;;2.06;100.00;100678.72;5142484;28;20214;-66
2022/12/09 11:07:10;;;;;;;39.50;30.65;;;;;;;2.18;100.00;100678.94;5125729;28;20023;-68
2022/12/09 11:09:43;;;;;;;37.15;29.15;;;;;;;2.20;100.00;100676.91;5125100;28;20023;-68
2022/12/09 11:12:25;;;;;;;33.08;26.13;;;;;;;2.25;100.00;100664.59;5125901;28;20030;-69
2022/12/09 11:15:21;;;;;;;40.20;32.35;;;;;;;2.33;100.00;100676.88;5142957;28;20031;-68
2022/12/09 11:18:04;;;;;;;34.67;31.08;;;;;;;2.34;100.00;100676.66;5142958;28;20150;-68
2022/12/09 11:20:35;;;;;;;32.42;28.67;;;;;;;2.37;100.00;100676.25;5125478;28;20027;-69
2022/12/09 11:23:15;;;;;;;31.52;28.27;;;;;;;2.49;100.00;100671.13;5142279;28;20391;-69
2022/12/09 11:26:04;;;;;;;36.20;29.67;;;;;;;2.53;100.00;100672.34;5143766;28;20035;-68
2022/12/09 11:28:39;;;;;;;32.75;27.67;;;;;;;2.55;100.00;100664.97;5142897;28;20055;-70
2022/12/09 11:31:19;;;;;;;33.60;30.00;;;;;;;2.44;100.00;100673.59;5125689;28;20058;-68
2022/12/09 11:33:52;;;;;;;29.10;26.17;;;;;;;2.36;100.00;100663.13;5142882;28;20034;-69
2022/12/09 11:36:26;;;;;;;30.50;27.63;;;;;;;2.28;100.00;100668.69;5146667;28;20453;-68